Vesljana, Russia
Current Conditions -  °F | °C
As of 11:00 AM on Thursday 27 Nov 2014 (Local Time) from UUYY Reporting Station
Light Snow Light Snow  
Wind Chill: 23°   Ceiling: 800
Heat Index: 23°   Visibility: 6mi
Dew Point: 19°   Wind: 0mph
Humidity: 86%   Direction: NA
Pressure: 30.36"   Gusts: NA
Location:  62.98°N, 50.9°E
Report Text: UUYY 270800Z 00000MPS 9000 -SN OVC008 M05/M07 Q1028 TEMPO 2000 SN 0119//51 RMK QFE762/1016
Loading
Personal Weather Stations






























Interactive Weather Map New forecast layout! Learn more

10-Day Weather Forecast

Advertisements
Track Severe Weather on mobile